createdAt,value
2022-08-29T00:01:26.167Z,51.03
2022-08-29T00:03:56.490Z,50.76
2022-08-29T00:06:23.360Z,51.12
2022-08-29T00:08:50.378Z,51.08
2022-08-29T00:11:17.973Z,51.05
2022-08-29T00:13:45.347Z,51.33
2022-08-29T00:16:12.465Z,50.96
2022-08-29T00:18:40.028Z,50.99
2022-08-29T00:21:07.633Z,50.91
2022-08-29T00:23:34.659Z,50.99
2022-08-29T00:26:01.599Z,50.75
2022-08-29T00:28:28.561Z,51.05
2022-08-29T00:30:55.555Z,51.11
2022-08-29T00:33:22.484Z,51.25
2022-08-29T00:35:49.355Z,50.86
2022-08-29T00:38:18.216Z,51.18
2022-08-29T00:40:51.642Z,51.28
2022-08-29T00:43:28.352Z,51.12
2022-08-29T00:46:13.937Z,51.10
2022-08-29T00:48:41.631Z,51.04
2022-08-29T00:51:13.172Z,51.28
2022-08-29T00:53:43.119Z,51.25
2022-08-29T00:56:10.437Z,51.11
2022-08-29T00:58:46.866Z,51.05
2022-08-29T01:01:14.619Z,51.10
2022-08-29T01:03:42.667Z,51.40
2022-08-29T01:06:10.701Z,51.54
2022-08-29T01:08:37.572Z,51.55
2022-08-29T01:11:22.910Z,51.37
2022-08-29T01:13:51.686Z,51.36
2022-08-29T01:16:19.550Z,51.13
2022-08-29T01:18:47.761Z,51.15
2022-08-29T01:21:17.587Z,51.63
2022-08-29T01:23:56.303Z,51.41
2022-08-29T01:26:23.591Z,51.50
2022-08-29T01:28:51.641Z,51.29
2022-08-29T01:31:37.427Z,51.41
2022-08-29T01:34:11.180Z,51.29
2022-08-29T01:36:55.775Z,51.24
2022-08-29T01:39:33.090Z,51.61
2022-08-29T01:42:01.053Z,51.77
2022-08-29T01:44:28.028Z,51.68
2022-08-29T01:47:02.232Z,51.58
2022-08-29T01:49:33.648Z,51.38
2022-08-29T01:52:02.106Z,51.49
2022-08-29T01:54:29.699Z,51.70
2022-08-29T01:56:56.548Z,51.93
2022-08-29T01:59:33.233Z,51.67
2022-08-29T02:02:03.036Z,51.58
2022-08-29T02:04:30.505Z,51.93
2022-08-29T02:06:57.948Z,51.45
2022-08-29T02:09:32.798Z,51.45
2022-08-29T02:12:02.841Z,51.64
2022-08-29T02:14:30.773Z,51.56
2022-08-29T02:16:57.592Z,51.72
2022-08-29T02:19:33.086Z,51.50
2022-08-29T02:22:00.297Z,51.63
2022-08-29T02:24:27.196Z,51.79
2022-08-29T02:26:55.567Z,51.91
2022-08-29T02:29:37.640Z,51.92
2022-08-29T02:32:09.291Z,51.86
2022-08-29T02:34:36.385Z,51.77
2022-08-29T02:37:03.729Z,51.82
2022-08-29T02:39:33.992Z,51.84
2022-08-29T02:42:00.845Z,51.86
2022-08-29T02:44:27.657Z,51.80
2022-08-29T02:46:54.752Z,51.83
2022-08-29T02:49:32.368Z,51.85
2022-08-29T02:51:59.505Z,51.88
2022-08-29T02:54:26.668Z,51.90
2022-08-29T02:56:53.486Z,52.03
2022-08-29T02:59:31.953Z,52.12
2022-08-29T03:01:58.986Z,51.71
2022-08-29T03:04:25.922Z,52.02
2022-08-29T03:06:52.800Z,51.73
2022-08-29T03:09:29.527Z,52.05
2022-08-29T03:11:56.894Z,52.05
2022-08-29T03:14:24.710Z,51.86
2022-08-29T03:16:51.608Z,51.85
2022-08-29T03:19:31.366Z,51.82
2022-08-29T03:22:04.373Z,51.86
2022-08-29T03:24:31.206Z,52.23
2022-08-29T03:26:58.896Z,51.84
2022-08-29T03:29:32.019Z,51.89
2022-08-29T03:31:58.846Z,51.95
2022-08-29T03:34:27.644Z,51.96
2022-08-29T03:36:55.150Z,51.99
2022-08-29T03:39:33.339Z,51.69
2022-08-29T03:42:00.107Z,52.06
2022-08-29T03:44:27.471Z,51.70
2022-08-29T03:46:55.252Z,52.05
2022-08-29T03:49:22.107Z,52.03
2022-08-29T03:54:16.978Z,52.31
2022-08-29T03:56:43.763Z,52.12
2022-08-29T03:59:11.612Z,52.17
2022-08-29T04:01:38.695Z,52.29
2022-08-29T04:04:05.692Z,51.89
2022-08-29T04:06:34.339Z,52.29
2022-08-29T04:09:01.123Z,52.24
2022-08-29T04:11:28.569Z,52.12
2022-08-29T04:13:55.661Z,52.05
2022-08-29T04:16:24.017Z,51.88
2022-08-29T04:18:51.029Z,52.05
2022-08-29T04:21:18.405Z,52.36
2022-08-29T04:23:46.481Z,52.08
2022-08-29T04:26:35.973Z,51.98
2022-08-29T04:29:03.946Z,51.89
2022-08-29T04:31:30.700Z,52.16
2022-08-29T04:33:57.667Z,52.01
2022-08-29T04:36:24.623Z,52.18
2022-08-29T04:38:51.399Z,52.28
2022-08-29T04:41:18.255Z,52.08
2022-08-29T04:43:48.090Z,52.11
2022-08-29T04:46:16.376Z,52.27
2022-08-29T04:48:51.069Z,52.08
2022-08-29T04:51:18.037Z,52.71
2022-08-29T04:53:45.700Z,52.61
2022-08-29T04:56:12.929Z,52.77
2022-08-29T04:58:40.784Z,52.22
2022-08-29T05:01:12.612Z,52.35
2022-08-29T05:03:39.534Z,52.38
2022-08-29T05:06:11.354Z,52.32
2022-08-29T05:08:39.178Z,52.71
2022-08-29T05:11:11.538Z,52.59
2022-08-29T05:13:38.859Z,52.51
2022-08-29T05:16:10.401Z,52.50
2022-08-29T05:18:37.441Z,52.50
2022-08-29T05:21:09.879Z,52.94
2022-08-29T05:23:36.823Z,52.78
2022-08-29T05:26:04.858Z,52.73
2022-08-29T05:28:32.566Z,52.71
2022-08-29T05:31:11.791Z,52.96
2022-08-29T05:33:40.767Z,53.04
2022-08-29T05:36:07.574Z,53.10
2022-08-29T05:38:34.288Z,52.91
2022-08-29T05:41:05.477Z,53.05
2022-08-29T05:43:33.094Z,52.87
2022-08-29T05:46:04.310Z,53.27
2022-08-29T05:48:31.465Z,53.16
2022-08-29T05:51:04.667Z,53.28
2022-08-29T05:53:31.285Z,52.78
2022-08-29T05:55:57.954Z,53.23
2022-08-29T05:58:24.696Z,53.32
2022-08-29T06:00:51.384Z,53.33
2022-08-29T06:03:18.294Z,53.01
2022-08-29T06:05:49.930Z,52.87
2022-08-29T06:08:16.713Z,52.98
2022-08-29T06:10:45.414Z,53.48
2022-08-29T06:13:12.737Z,53.27
2022-08-29T06:15:42.833Z,53.28
2022-08-29T06:18:09.512Z,53.31
2022-08-29T06:20:37.543Z,53.52
2022-08-29T06:23:04.387Z,53.19
2022-08-29T06:25:39.555Z,53.58
2022-08-29T06:28:06.870Z,52.96
2022-08-29T06:30:34.067Z,53.15
2022-08-29T06:33:01.371Z,53.21
2022-08-29T06:35:32.682Z,53.11
2022-08-29T06:37:59.302Z,53.33
2022-08-29T06:40:26.097Z,53.39
2022-08-29T06:42:52.769Z,53.34
2022-08-29T06:45:19.387Z,53.47
2022-08-29T06:47:46.769Z,53.65
2022-08-29T06:50:13.902Z,53.15
2022-08-29T06:52:40.590Z,53.08
2022-08-29T06:55:11.825Z,53.33
2022-08-29T06:57:46.127Z,53.15
2022-08-29T07:00:21.860Z,53.35
2022-08-29T07:02:51.705Z,53.13
2022-08-29T07:05:19.982Z,53.47
2022-08-29T07:07:46.652Z,53.24
2022-08-29T07:10:17.607Z,53.52
2022-08-29T07:12:48.325Z,53.62
2022-08-29T07:15:15.031Z,53.53
2022-08-29T07:17:42.275Z,53.28
2022-08-29T07:20:10.108Z,53.58
2022-08-29T07:22:36.773Z,53.48
2022-08-29T07:25:03.436Z,53.32
2022-08-29T07:27:30.047Z,53.50
2022-08-29T07:29:56.795Z,53.56
2022-08-29T07:32:25.846Z,53.76
2022-08-29T07:34:55.914Z,53.72
2022-08-29T07:37:23.025Z,53.58
2022-08-29T07:39:49.678Z,53.28
2022-08-29T07:42:16.866Z,53.44
2022-08-29T07:44:43.501Z,53.49
2022-08-29T07:47:10.147Z,53.30
2022-08-29T07:49:41.383Z,53.68
2022-08-29T07:52:09.944Z,53.69
2022-08-29T07:54:36.577Z,53.67
2022-08-29T07:57:03.316Z,53.73
2022-08-29T07:59:30.772Z,53.72
2022-08-29T08:01:57.506Z,53.60
2022-08-29T08:04:24.333Z,53.65
2022-08-29T08:06:50.983Z,53.71
2022-08-29T08:09:17.677Z,53.82
2022-08-29T08:11:44.366Z,53.62
2022-08-29T08:14:11.149Z,53.39
2022-08-29T08:16:38.011Z,53.59
2022-08-29T08:19:10.654Z,53.55
2022-08-29T08:21:37.666Z,53.00
2022-08-29T08:24:17.408Z,53.17
2022-08-29T08:26:46.346Z,53.11
2022-08-29T08:29:13.149Z,53.06
2022-08-29T08:31:46.791Z,53.06
2022-08-29T08:34:15.815Z,52.69
2022-08-29T08:36:45.103Z,52.83
2022-08-29T08:39:20.727Z,52.37
2022-08-29T08:41:51.122Z,52.40
2022-08-29T08:44:28.578Z,52.45
2022-08-29T08:46:58.827Z,52.54
2022-08-29T08:49:39.930Z,52.56
2022-08-29T08:52:10.721Z,52.01
2022-08-29T08:54:44.922Z,52.39
2022-08-29T08:57:12.977Z,52.35
2022-08-29T08:59:44.279Z,52.13
2022-08-29T09:02:35.450Z,51.97
2022-08-29T09:05:20.351Z,52.00
2022-08-29T09:07:46.929Z,52.09
2022-08-29T09:10:32.456Z,51.76
2022-08-29T09:12:59.159Z,52.13
2022-08-29T09:15:40.018Z,52.01
2022-08-29T09:18:13.579Z,51.84
2022-08-29T09:20:41.324Z,51.79
2022-08-29T09:23:14.659Z,51.63
2022-08-29T09:25:41.480Z,51.29
2022-08-29T09:28:09.091Z,51.15
2022-08-29T09:30:37.105Z,51.43
2022-08-29T09:33:05.414Z,50.95
2022-08-29T09:35:37.536Z,51.51
2022-08-29T09:38:06.590Z,51.37
2022-08-29T09:41:09.960Z,51.63
2022-08-29T09:43:39.590Z,51.39
2022-08-29T09:46:12.619Z,51.40
2022-08-29T09:48:40.961Z,51.67
2022-08-29T09:51:13.728Z,51.17
2022-08-29T09:56:08.309Z,51.14
2022-08-29T09:58:40.436Z,49.97
2022-08-29T10:01:14.149Z,49.94
2022-08-29T10:03:42.648Z,50.14
2022-08-29T10:06:30.248Z,50.45
2022-08-29T10:08:58.787Z,49.94
2022-08-29T10:11:28.571Z,50.66
2022-08-29T10:14:03.688Z,50.91
2022-08-29T10:16:37.809Z,50.80
2022-08-29T10:19:07.019Z,51.33
2022-08-29T10:21:39.725Z,50.79
2022-08-29T10:24:12.739Z,50.70
2022-08-29T10:27:00.684Z,49.91
2022-08-29T10:29:33.219Z,49.40
2022-08-29T10:32:14.332Z,49.30
2022-08-29T10:34:54.959Z,49.65
2022-08-29T10:37:40.152Z,48.88
2022-08-29T10:40:17.497Z,49.34
2022-08-29T10:42:44.908Z,49.20
2022-08-29T10:45:13.450Z,49.90
2022-08-29T10:47:45.247Z,49.38
2022-08-29T10:50:43.605Z,49.30
2022-08-29T10:53:15.523Z,49.16
2022-08-29T10:55:51.378Z,49.24
2022-08-29T10:58:26.554Z,49.56
2022-08-29T11:01:09.850Z,50.40
2022-08-29T11:03:40.458Z,50.11
2022-08-29T11:09:33.733Z,49.29
2022-08-29T11:12:05.693Z,48.29
2022-08-29T11:14:54.537Z,48.82
2022-08-29T11:17:23.451Z,49.02
2022-08-29T11:19:52.948Z,49.18
2022-08-29T11:22:25.302Z,48.06
2022-08-29T11:24:57.896Z,48.73
2022-08-29T11:27:32.409Z,48.14
2022-08-29T11:30:10.457Z,48.88
2022-08-29T11:32:51.238Z,48.83
2022-08-29T11:35:22.175Z,49.23
2022-08-29T11:37:49.068Z,49.84
2022-08-29T11:43:30.695Z,49.12
2022-08-29T11:45:59.648Z,47.59
2022-08-29T11:48:31.534Z,47.21
2022-08-29T11:51:22.070Z,47.80
2022-08-29T11:53:48.840Z,48.74
2022-08-29T11:56:16.038Z,47.51
2022-08-29T11:58:46.071Z,48.15
2022-08-29T12:01:33.550Z,49.46
2022-08-29T12:04:00.888Z,49.04
2022-08-29T12:06:35.326Z,47.97
2022-08-29T12:09:07.227Z,48.42
2022-08-29T12:11:53.452Z,48.56
2022-08-29T12:14:33.192Z,48.85
2022-08-29T12:17:05.335Z,49.32
2022-08-29T12:19:52.779Z,48.95
2022-08-29T12:22:37.889Z,48.36
2022-08-29T12:25:36.804Z,48.67
2022-08-29T12:28:03.506Z,48.90
2022-08-29T12:30:40.945Z,48.93
2022-08-29T12:33:14.633Z,49.10
2022-08-29T12:35:56.739Z,47.70
2022-08-29T12:38:44.925Z,47.89
2022-08-29T12:41:29.983Z,48.15
2022-08-29T12:44:00.094Z,48.44
2022-08-29T12:46:35.695Z,48.99
2022-08-29T12:49:21.202Z,48.41
2022-08-29T12:51:49.537Z,47.23
2022-08-29T12:54:28.106Z,48.29
2022-08-29T12:56:57.309Z,48.37
2022-08-29T12:59:24.095Z,48.88
2022-08-29T13:01:57.087Z,48.79
2022-08-29T13:04:25.691Z,49.37
2022-08-29T13:06:59.265Z,48.94
2022-08-29T13:09:28.989Z,48.81
2022-08-29T13:12:14.236Z,49.21
2022-08-29T13:14:53.071Z,49.70
2022-08-29T13:17:21.026Z,49.96
2022-08-29T13:20:06.710Z,49.79
2022-08-29T13:22:33.447Z,49.64
2022-08-29T13:25:04.964Z,50.33
2022-08-29T13:27:31.960Z,50.32
2022-08-29T13:30:01.867Z,50.06
2022-08-29T13:32:28.568Z,50.10
2022-08-29T13:35:01.129Z,50.48
2022-08-29T13:37:29.964Z,48.19
2022-08-29T13:39:56.708Z,49.44
2022-08-29T13:42:26.519Z,48.34
2022-08-29T13:44:58.672Z,49.47
2022-08-29T13:47:29.624Z,49.50
2022-08-29T13:50:09.061Z,49.08
2022-08-29T13:52:35.833Z,49.43
2022-08-29T13:55:02.902Z,47.38
2022-08-29T13:57:30.713Z,46.95
2022-08-29T13:59:58.219Z,47.89
2022-08-29T14:02:25.347Z,48.21
2022-08-29T14:04:52.339Z,49.13
2022-08-29T14:07:21.310Z,48.34
2022-08-29T14:09:48.327Z,49.09
2022-08-29T14:12:15.534Z,49.03
2022-08-29T14:14:42.757Z,48.81
2022-08-29T14:17:10.060Z,49.14
2022-08-29T14:19:40.903Z,48.04
2022-08-29T14:22:08.461Z,48.61
2022-08-29T14:24:35.262Z,49.30
2022-08-29T14:27:02.778Z,49.31
2022-08-29T14:29:31.053Z,47.58
2022-08-29T14:31:58.392Z,48.33
2022-08-29T14:34:25.347Z,47.42
2022-08-29T14:36:57.418Z,48.30
2022-08-29T14:39:26.388Z,48.64
2022-08-29T14:41:53.692Z,49.30
2022-08-29T14:44:22.078Z,48.64
2022-08-29T14:46:48.993Z,47.54
2022-08-29T14:49:16.096Z,48.81
2022-08-29T14:51:44.539Z,48.38
2022-08-29T14:54:11.642Z,48.38
2022-08-29T14:56:48.094Z,48.95
2022-08-29T14:59:16.231Z,49.57
2022-08-29T15:01:43.160Z,49.11
2022-08-29T15:04:10.060Z,48.28
2022-08-29T15:06:37.984Z,47.91
2022-08-29T15:09:04.954Z,49.08
2022-08-29T15:11:31.643Z,48.90
2022-08-29T15:14:03.545Z,48.42
2022-08-29T15:16:32.006Z,48.36
2022-08-29T15:19:40.617Z,49.02
2022-08-29T15:21:45.315Z,49.09
2022-08-29T15:24:11.955Z,49.38
2022-08-29T15:26:38.731Z,49.79
2022-08-29T15:29:05.454Z,49.15
2022-08-29T15:31:32.178Z,48.60
2022-08-29T15:33:58.858Z,49.48
2022-08-29T15:36:25.503Z,49.47
2022-08-29T15:38:52.173Z,49.58
2022-08-29T15:41:18.846Z,49.66
2022-08-29T15:43:45.512Z,49.44
2022-08-29T15:46:12.449Z,49.52
2022-08-29T15:48:39.549Z,49.46
2022-08-29T15:51:10.177Z,49.84
2022-08-29T15:53:36.842Z,50.00
2022-08-29T15:56:03.520Z,49.04
2022-08-29T15:58:30.543Z,48.28
2022-08-29T16:01:07.195Z,48.91
2022-08-29T16:03:33.944Z,48.76
2022-08-29T16:06:00.582Z,48.98
2022-08-29T16:08:29.746Z,49.21
2022-08-29T16:11:03.219Z,49.16
2022-08-29T16:13:30.069Z,48.57
2022-08-29T16:15:56.812Z,48.70
2022-08-29T16:18:23.527Z,49.00
2022-08-29T16:20:50.750Z,48.90
2022-08-29T16:23:23.406Z,47.78
2022-08-29T16:25:50.124Z,48.15
2022-08-29T16:28:17.028Z,48.55
2022-08-29T16:30:44.476Z,48.75
2022-08-29T16:33:13.340Z,48.95
2022-08-29T16:35:39.959Z,48.09
2022-08-29T16:38:06.705Z,47.44
2022-08-29T16:40:33.617Z,48.17
2022-08-29T16:43:00.836Z,47.63
2022-08-29T16:45:27.506Z,48.30
2022-08-29T16:47:57.402Z,48.03
2022-08-29T16:50:25.024Z,48.30
2022-08-29T16:52:51.819Z,48.09
2022-08-29T16:55:18.521Z,48.04
2022-08-29T16:58:05.138Z,47.66
2022-08-29T17:00:32.322Z,47.75
2022-08-29T17:02:59.157Z,47.92
2022-08-29T17:05:25.986Z,47.66
2022-08-29T17:07:52.524Z,47.29
2022-08-29T17:10:19.199Z,48.07
2022-08-29T17:12:45.965Z,48.21
2022-08-29T17:15:12.586Z,48.47
2022-08-29T17:17:39.210Z,48.90
2022-08-29T17:20:06.079Z,48.34
2022-08-29T17:22:33.503Z,48.44
2022-08-29T17:25:00.388Z,48.07
2022-08-29T17:27:30.116Z,48.09
2022-08-29T17:29:57.011Z,47.36
2022-08-29T17:32:23.715Z,47.96
2022-08-29T17:34:50.540Z,48.14
2022-08-29T17:37:17.489Z,47.87
2022-08-29T17:39:44.204Z,47.76
2022-08-29T17:42:11.582Z,47.98
2022-08-29T17:44:38.378Z,47.62
2022-08-29T17:47:05.177Z,48.30
2022-08-29T17:49:32.556Z,48.04
2022-08-29T17:51:59.238Z,48.00
2022-08-29T17:54:26.843Z,48.13
2022-08-29T17:56:55.103Z,47.63
2022-08-29T17:59:22.299Z,47.94
2022-08-29T18:01:48.972Z,48.29
2022-08-29T18:04:16.037Z,47.83
2022-08-29T18:06:42.810Z,47.99
2022-08-29T18:09:09.616Z,48.65
2022-08-29T18:11:41.166Z,48.01
2022-08-29T18:14:08.728Z,48.05
2022-08-29T18:16:35.837Z,48.01
2022-08-29T18:19:03.385Z,48.10
2022-08-29T18:21:30.352Z,48.26
2022-08-29T18:23:57.878Z,47.88
2022-08-29T18:26:26.472Z,48.13
2022-08-29T18:28:53.826Z,48.30
2022-08-29T18:31:21.247Z,48.49
2022-08-29T18:34:03.882Z,48.12
2022-08-29T18:36:31.749Z,48.31
2022-08-29T18:38:59.095Z,48.19
2022-08-29T18:41:27.017Z,48.35
2022-08-29T18:43:54.202Z,48.46
2022-08-29T18:46:21.523Z,48.70
2022-08-29T18:48:48.425Z,48.19
2022-08-29T18:51:20.682Z,48.39
2022-08-29T18:53:49.978Z,48.66
2022-08-29T18:56:17.033Z,48.35
2022-08-29T18:58:44.825Z,48.92
2022-08-29T19:01:14.997Z,48.64
2022-08-29T19:03:42.096Z,48.95
2022-08-29T19:06:08.917Z,48.60
2022-08-29T19:08:36.680Z,48.66
2022-08-29T19:11:11.473Z,48.36
2022-08-29T19:13:39.025Z,48.39
2022-08-29T19:16:07.430Z,48.21
2022-08-29T19:18:34.609Z,48.42
2022-08-29T19:21:12.923Z,48.42
2022-08-29T19:23:41.487Z,48.75
2022-08-29T19:26:10.965Z,48.62
2022-08-29T19:28:37.974Z,48.69
2022-08-29T19:31:12.395Z,48.39
2022-08-29T19:33:42.142Z,48.79
2022-08-29T19:36:09.362Z,48.52
2022-08-29T19:38:37.097Z,48.52
2022-08-29T19:41:10.066Z,48.09
2022-08-29T19:43:39.204Z,48.34
2022-08-29T19:46:14.535Z,47.71
2022-08-29T19:48:43.619Z,48.35
2022-08-29T19:51:13.594Z,48.37
2022-08-29T19:53:41.936Z,47.86
2022-08-29T19:56:09.384Z,48.09
2022-08-29T19:58:37.726Z,48.11
2022-08-29T20:01:11.616Z,48.59
2022-08-29T20:03:40.087Z,48.73
2022-08-29T20:06:07.665Z,48.32
2022-08-29T20:08:40.098Z,48.30
2022-08-29T20:11:15.832Z,48.69
2022-08-29T20:13:47.537Z,48.53
2022-08-29T20:16:17.919Z,47.97
2022-08-29T20:18:45.287Z,47.58
2022-08-29T20:21:12.883Z,47.89
2022-08-29T20:23:43.572Z,48.25
2022-08-29T20:26:17.174Z,47.95
2022-08-29T20:28:43.873Z,48.11
2022-08-29T20:31:13.417Z,48.10
2022-08-29T20:33:41.510Z,47.61
2022-08-29T20:36:27.111Z,47.82
2022-08-29T20:38:53.770Z,47.63
2022-08-29T20:41:21.225Z,47.76
2022-08-29T20:43:48.211Z,47.89
2022-08-29T20:46:14.917Z,48.22
2022-08-29T20:48:41.593Z,47.70
2022-08-29T20:51:12.821Z,47.82
2022-08-29T20:53:40.797Z,47.82
2022-08-29T20:56:07.425Z,47.78
2022-08-29T20:58:34.812Z,48.02
2022-08-29T21:01:10.026Z,48.00
2022-08-29T21:03:55.276Z,47.83
2022-08-29T21:06:21.968Z,47.87
2022-08-29T21:08:49.003Z,47.75
2022-08-29T21:11:16.469Z,47.44
2022-08-29T21:13:43.647Z,48.13
2022-08-29T21:16:11.163Z,48.10
2022-08-29T21:18:37.891Z,47.79
2022-08-29T21:21:15.288Z,47.66
2022-08-29T21:23:42.157Z,47.87
2022-08-29T21:26:09.982Z,47.66
2022-08-29T21:28:37.949Z,48.03
2022-08-29T21:31:12.590Z,47.57
2022-08-29T21:33:44.009Z,47.43
2022-08-29T21:36:25.961Z,47.32
2022-08-29T21:38:54.515Z,47.87
2022-08-29T21:41:21.635Z,47.81
2022-08-29T21:43:48.364Z,47.68
2022-08-29T21:46:15.873Z,47.75
2022-08-29T21:48:42.726Z,48.17
2022-08-29T21:51:12.495Z,47.99
2022-08-29T21:53:41.535Z,48.12
2022-08-29T21:56:08.499Z,47.97
2022-08-29T21:58:35.154Z,47.90
2022-08-29T22:01:11.544Z,47.90
2022-08-29T22:03:38.732Z,47.69
2022-08-29T22:06:06.140Z,48.23
2022-08-29T22:08:32.941Z,47.87
2022-08-29T22:11:22.954Z,47.72
2022-08-29T22:13:51.208Z,48.13
2022-08-29T22:16:29.797Z,48.05
2022-08-29T22:18:57.839Z,48.08
2022-08-29T22:21:24.960Z,48.18
2022-08-29T22:23:51.962Z,47.79
2022-08-29T22:26:18.588Z,47.73
2022-08-29T22:28:45.496Z,47.85
2022-08-29T22:31:14.602Z,48.01
2022-08-29T22:33:41.443Z,48.22
2022-08-29T22:36:09.910Z,48.04
2022-08-29T22:38:36.628Z,48.04
2022-08-29T22:41:15.678Z,47.81
2022-08-29T22:43:43.781Z,48.24
2022-08-29T22:46:14.748Z,47.95
2022-08-29T22:48:41.945Z,47.99
2022-08-29T22:51:19.040Z,47.94
2022-08-29T22:54:08.739Z,48.21
2022-08-29T22:56:38.494Z,48.22
2022-08-29T22:59:06.838Z,48.27
2022-08-29T23:01:35.229Z,48.34
2022-08-29T23:04:03.715Z,48.31
2022-08-29T23:08:57.444Z,48.10
2022-08-29T23:11:28.353Z,48.59
2022-08-29T23:13:56.644Z,48.26
2022-08-29T23:16:24.224Z,48.20
2022-08-29T23:18:51.492Z,48.37
2022-08-29T23:21:18.859Z,48.29
2022-08-29T23:23:45.890Z,48.14
2022-08-29T23:26:12.965Z,48.21
2022-08-29T23:28:39.858Z,48.04
2022-08-29T23:31:11.399Z,48.50
2022-08-29T23:33:38.298Z,48.58
2022-08-29T23:36:05.772Z,48.45
2022-08-29T23:38:32.706Z,48.62
2022-08-29T23:41:15.018Z,48.47
2022-08-29T23:43:42.450Z,48.50
2022-08-29T23:46:09.646Z,48.20
2022-08-29T23:48:36.722Z,48.00
2022-08-29T23:51:13.120Z,48.30
2022-08-29T23:53:40.074Z,48.23
2022-08-29T23:56:10.975Z,48.14
2022-08-29T23:58:37.820Z,48.26
